Time;durP1;ratioP1;P1;durP2;ratioP2;P2;SDS_P1;SDS_P2;PMS_P1;PMS_P2;Temp;Humidity;BMP_temperature;BMP_pressure;BME280_temperature;BME280_humidity;BME280_pressure;Samples;Min_cycle;Max_cycle;Signal;HPM_P1;HPM_P2
2022/09/28 00:01:51;;;;;;;;;;;19.30;59.60;;;;;;10360583;28;20115;-37
2022/09/28 00:06:53;;;;;;;0.75;0.45;;;19.20;59.40;;;;;;10356142;28;19972;-39
2022/09/28 00:11:55;;;;;;;1.25;0.43;;;19.40;59.60;;;;;;10352844;28;20430;-38
2022/09/28 00:16:58;;;;;;;;;;;19.40;59.50;;;;;;10367713;28;20522;-39
2022/09/28 00:22:00;;;;;;;0.68;0.22;;;19.30;59.50;;;;;;10361825;28;20004;-37
2022/09/28 00:27:03;;;;;;;2.00;0.40;;;19.30;59.50;;;;;;10378021;28;20081;-37
2022/09/28 00:32:06;;;;;;;;;;;19.20;59.40;;;;;;10370270;28;20042;-38
2022/09/28 00:37:09;;;;;;;2.80;0.57;;;15.50;67.30;;;;;;10383519;28;19980;-38
2022/09/28 00:42:16;;;;;;;0.85;0.28;;;16.60;68.40;;;;;;10357805;28;20050;-36
2022/09/28 00:47:40;;;;;;;2.28;0.45;;;15.20;72.30;;;;;;10366607;28;20484;-36
2022/09/28 00:52:47;;;;;;;2.33;0.65;;;15.20;75.40;;;;;;10365807;28;20128;-35
2022/09/28 00:57:54;;;;;;;3.25;0.80;;;14.60;75.30;;;;;;10364527;28;20097;-37
2022/09/28 01:02:58;;;;;;;2.28;0.55;;;15.30;73.60;;;;;;10352622;28;20057;-36
2022/09/28 01:08:01;;;;;;;1.42;0.60;;;15.50;74.80;;;;;;10353492;28;20683;-37
2022/09/28 01:13:03;;;;;;;1.25;0.30;;;17.20;68.10;;;;;;10354348;28;20073;-36
2022/09/28 01:18:17;;;;;;;3.40;0.57;;;15.70;74.10;;;;;;10355609;28;20061;-36
2022/09/28 01:23:40;;;;;;;1.25;0.40;;;17.10;66.60;;;;;;10359237;28;20480;-38
2022/09/28 01:28:45;;;;;;;3.72;0.30;;;17.70;66.10;;;;;;10347585;28;20570;-38
2022/09/28 01:33:54;;;;;;;2.60;0.25;;;17.30;63.50;;;;;;10363050;28;20138;-39
2022/09/28 01:39:00;;;;;;;2.95;0.50;;;16.30;67.60;;;;;;10371277;28;20483;-38
2022/09/28 01:44:07;;;;;;;1.17;0.28;;;16.80;67.40;;;;;;10350034;28;20065;-38
2022/09/28 01:49:14;;;;;;;4.70;0.50;;;16.90;68.10;;;;;;10355235;28;20054;-37
2022/09/28 01:54:22;;;;;;;1.58;0.50;;;16.80;65.00;;;;;;10351928;28;20120;-37
2022/09/28 01:59:29;;;;;;;6.93;0.38;;;15.90;71.80;;;;;;10359335;28;20570;-38
2022/09/28 02:04:35;;;;;;;1.05;0.65;;;15.60;70.40;;;;;;10354006;28;20490;-38
2022/09/28 02:09:41;;;;;;;1.77;0.63;;;16.00;69.70;;;;;;10356162;28;20041;-38
2022/09/28 02:14:48;;;;;;;3.75;0.50;;;15.10;71.00;;;;;;10350499;28;20072;-38
2022/09/28 02:19:50;;;;;;;2.92;0.73;;;13.10;81.50;;;;;;10346983;28;20058;-36
2022/09/28 02:24:56;;;;;;;7.53;0.80;;;14.90;77.80;;;;;;10356213;28;20042;-38
2022/09/28 02:29:59;;;;;;;2.53;0.60;;;16.20;69.90;;;;;;10345057;28;20046;-37
2022/09/28 02:35:01;;;;;;;0.60;0.40;;;16.60;67.90;;;;;;10369894;28;20510;-39
2022/09/28 02:40:04;;;;;;;1.77;0.47;;;15.30;74.10;;;;;;10356417;28;20163;-37
2022/09/28 02:45:19;;;;;;;5.38;0.52;;;17.20;65.00;;;;;;10325029;28;20471;-37
2022/09/28 02:50:33;;;;;;;2.38;0.40;;;15.30;73.00;;;;;;10361824;28;20084;-39
2022/09/28 02:55:47;;;;;;;1.42;0.40;;;17.60;64.80;;;;;;10352643;28;20169;-38
2022/09/28 03:00:57;;;;;;;0.55;0.40;;;18.10;63.10;;;;;;10349648;28;20050;-38
2022/09/28 03:06:03;;;;;;;0.30;0.20;;;18.30;61.80;;;;;;10350605;28;20133;-38
2022/09/28 03:11:09;;;;;;;0.95;0.40;;;18.40;60.90;;;;;;10361759;28;20081;-37
2022/09/28 03:16:14;;;;;;;2.30;0.20;;;17.40;64.90;;;;;;10347511;28;20111;-37
2022/09/28 03:21:16;;;;;;;0.55;0.20;;;18.20;61.40;;;;;;10360607;28;20096;-38
2022/09/28 03:26:18;;;;;;;3.72;0.60;;;16.10;68.90;;;;;;10343186;28;20484;-37
2022/09/28 03:31:21;;;;;;;0.57;0.27;;;13.50;79.90;;;;;;10352207;28;20050;-37
2022/09/28 03:36:23;;;;;;;0.93;0.50;;;15.10;77.00;;;;;;10358721;28;20078;-38
2022/09/28 03:41:26;;;;;;;1.60;0.30;;;17.40;65.50;;;;;;10338559;28;20049;-37
2022/09/28 03:46:29;;;;;;;0.35;0.10;;;17.80;63.40;;;;;;10357259;28;20137;-36
2022/09/28 03:51:31;;;;;;;1.40;0.30;;;18.30;61.50;;;;;;10344993;28;20053;-37
2022/09/28 03:56:33;;;;;;;1.88;0.10;;;18.40;60.40;;;;;;10358951;28;20053;-36
2022/09/28 04:01:37;;;;;;;1.00;0.32;;;18.00;61.20;;;;;;10349046;28;20140;-38
2022/09/28 04:06:39;;;;;;;0.57;0.30;;;18.30;60.50;;;;;;10363300;28;20049;-36
2022/09/28 04:11:41;;;;;;;3.45;0.38;;;18.30;61.20;;;;;;10363002;28;20124;-39
2022/09/28 04:16:44;;;;;;;1.07;0.27;;;16.40;66.20;;;;;;10341426;28;20092;-39
2022/09/28 04:21:46;;;;;;;0.65;0.22;;;18.10;62.20;;;;;;10365217;28;20051;-38
2022/09/28 04:26:48;;;;;;;0.73;0.33;;;18.30;61.20;;;;;;10359908;28;20049;-38
2022/09/28 04:31:53;;;;;;;0.35;0.20;;;17.90;61.80;;;;;;10345107;28;20065;-37
2022/09/28 04:36:55;;;;;;;0.55;0.30;;;18.50;60.50;;;;;;10364927;28;20137;-39
2022/09/28 04:41:57;;;;;;;2.03;0.30;;;18.30;61.90;;;;;;10347118;28;20418;-34
2022/09/28 04:47:00;;;;;;;0.80;0.20;;;17.60;64.30;;;;;;10347899;28;20511;-39
2022/09/28 04:52:02;;;;;;;1.45;0.25;;;18.30;61.80;;;;;;10370330;28;20050;-37
2022/09/28 04:57:04;;;;;;;0.90;0.20;;;18.80;60.30;;;;;;10357479;28;20129;-36
2022/09/28 05:02:08;;;;;;;1.00;0.20;;;18.90;59.80;;;;;;10367277;28;20052;-38
2022/09/28 05:07:10;;;;;;;0.38;0.15;;;18.80;59.60;;;;;;10360924;28;20050;-37
2022/09/28 05:12:11;;;;;;;1.17;0.20;;;18.90;60.10;;;;;;10350012;28;20305;-38
2022/09/28 05:17:15;;;;;;;0.63;0.45;;;18.40;60.70;;;;;;10359874;28;20165;-37
2022/09/28 05:22:16;;;;;;;1.33;0.38;;;18.00;62.80;;;;;;10357911;28;20053;-38
2022/09/28 05:27:18;;;;;;;0.80;0.35;;;18.30;61.90;;;;;;10361577;28;20049;-38
2022/09/28 05:32:22;;;;;;;1.65;0.43;;;18.20;62.80;;;;;;10358447;28;20073;-37
2022/09/28 05:37:23;;;;;;;0.63;0.10;;;18.30;62.50;;;;;;10358462;28;20042;-38
2022/09/28 05:42:25;;;;;;;2.50;0.20;;;18.30;62.90;;;;;;10346691;28;20113;-37
2022/09/28 05:47:29;;;;;;;1.48;0.30;;;18.10;63.10;;;;;;10352493;28;20046;-38
2022/09/28 05:52:31;;;;;;;0.20;0.10;;;18.60;60.60;;;;;;10364591;28;20052;-36
2022/09/28 05:57:33;;;;;;;1.80;0.20;;;19.00;60.30;;;;;;10360920;28;20042;-38
2022/09/28 06:02:36;;;;;;;0.93;0.28;;;19.10;59.90;;;;;;10362266;28;20054;-38
2022/09/28 06:07:38;;;;;;;0.75;0.20;;;19.20;59.90;;;;;;10361427;28;20050;-40
2022/09/28 06:12:40;;;;;;;0.50;0.30;;;19.20;59.50;;;;;;10363447;28;20136;-40
2022/09/28 06:17:43;;;;;;;0.40;0.40;;;19.30;59.50;;;;;;10353974;28;20186;-37
2022/09/28 06:22:45;;;;;;;0.93;0.22;;;19.40;59.60;;;;;;10361791;28;20073;-38
2022/09/28 06:27:54;;;;;;;1.90;0.70;;;19.30;59.50;;;;;;10359530;28;20089;-36
2022/09/28 06:33:00;;;;;;;2.28;0.50;;;16.60;69.00;;;;;;10358937;28;20046;-37
2022/09/28 06:38:02;;;;;;;7.47;0.73;;;17.10;67.60;;;;;;10370054;28;20125;-36
2022/09/28 06:43:08;;;;;;;1.00;0.57;;;19.20;61.00;;;;;;10339740;28;20105;-39
2022/09/28 06:48:13;;;;;;;0.22;0.20;;;19.00;60.30;;;;;;10360115;28;20136;-38
2022/09/28 06:53:15;;;;;;;3.22;0.50;;;19.30;59.90;;;;;;10365105;28;20074;-38
2022/09/28 06:58:19;;;;;;;0.80;0.22;;;19.30;59.80;;;;;;10354303;28;20089;-38
2022/09/28 07:03:22;;;;;;;1.65;0.63;;;19.30;59.60;;;;;;10350644;28;20093;-37
2022/09/28 07:08:27;;;;;;;0.57;0.20;;;19.40;59.60;;;;;;10348634;28;20045;-38
2022/09/28 07:13:29;;;;;;;2.38;0.35;;;19.50;59.50;;;;;;10362169;28;20136;-37
2022/09/28 07:18:32;;;;;;;3.40;0.40;;;19.40;59.60;;;;;;10356666;28;20077;-38
2022/09/28 07:23:34;;;;;;;0.75;0.40;;;19.40;59.60;;;;;;10371069;28;20137;-39
2022/09/28 07:28:39;;;;;;;1.08;0.40;;;19.40;59.60;;;;;;10359089;28;20176;-35
2022/09/28 07:33:42;;;;;;;0.00;0.00;;;19.40;59.50;;;;;;10362671;28;20442;-40
2022/09/28 07:38:44;;;;;;;1.35;0.20;;;19.70;59.80;;;;;;10372472;28;20041;-37
2022/09/28 07:43:46;;;;;;;2.50;0.30;;;19.30;59.70;;;;;;10366015;28;20101;-39
2022/09/28 07:48:50;;;;;;;3.58;0.38;;;19.40;59.70;;;;;;10373659;28;20050;-39
2022/09/28 07:53:52;;;;;;;1.17;0.30;;;19.30;59.70;;;;;;10365370;28;20046;-38
2022/09/28 07:58:54;;;;;;;1.75;0.45;;;19.40;59.70;;;;;;10349794;28;20057;-38
2022/09/28 08:03:58;;;;;;;2.22;0.30;;;19.30;59.70;;;;;;10359840;28;20101;-38
2022/09/28 08:09:00;;;;;;;4.28;2.40;;;19.40;59.70;;;;;;10366400;28;20085;-38
2022/09/28 08:14:02;;;;;;;5.55;2.40;;;19.30;59.80;;;;;;10363600;28;20081;-37
2022/09/28 08:19:05;;;;;;;1.73;1.33;;;19.30;59.90;;;;;;10359256;28;20491;-38
2022/09/28 08:24:07;;;;;;;2.78;0.70;;;19.50;59.80;;;;;;10363692;28;20069;-41
2022/09/28 08:29:09;;;;;;;2.42;0.57;;;19.20;59.80;;;;;;10372726;28;20154;-38
2022/09/28 08:34:13;;;;;;;0.65;0.40;;;19.30;59.90;;;;;;10380114;28;20050;-38
2022/09/28 08:39:14;;;;;;;1.67;0.35;;;19.40;59.50;;;;;;10361724;28;20069;-38
2022/09/28 08:44:22;;;;;;;6.80;0.40;;;19.30;59.50;;;;;;10368904;28;20526;-39
2022/09/28 08:49:31;;;;;;;1.58;0.52;;;19.40;59.30;;;;;;10351865;28;20479;-40
2022/09/28 08:54:42;;;;;;;0.73;0.38;;;19.40;59.20;;;;;;10355652;28;20108;-38
2022/09/28 08:59:49;;;;;;;1.85;0.57;;;19.40;59.40;;;;;;10363754;28;20101;-39
2022/09/28 09:04:53;;;;;;;1.70;0.28;;;19.50;59.30;;;;;;10362688;28;20054;-36
2022/09/28 09:10:05;;;;;;;1.80;0.85;;;19.40;59.20;;;;;;10345390;28;20054;-38
2022/09/28 09:15:21;;;;;;;2.53;0.70;;;19.20;59.70;;;;;;10352641;28;20129;-39
2022/09/28 09:20:37;;;;;;;1.23;0.60;;;19.20;59.90;;;;;;10319666;28;1387054;-37
2022/09/28 09:25:42;;;;;;;0.70;0.43;;;19.30;59.80;;;;;;10359197;28;20092;-37
2022/09/28 09:30:51;;;;;;;3.15;1.92;;;19.30;59.30;;;;;;10348380;28;20490;-38
2022/09/28 09:36:07;;;;;;;26.58;12.60;;;19.30;59.30;;;;;;10355649;28;20129;-37
2022/09/28 09:41:21;;;;;;;26.23;14.20;;;19.30;59.50;;;;;;10342459;28;20074;-39
2022/09/28 09:46:33;;;;;;;17.77;9.13;;;19.40;59.30;;;;;;10382332;28;20659;-38
2022/09/28 09:51:43;;;;;;;7.05;4.35;;;19.40;59.30;;;;;;10370912;28;20104;-38
2022/09/28 09:56:52;;;;;;;7.53;4.25;;;19.40;59.10;;;;;;10360915;28;20093;-39
2022/09/28 10:01:55;;;;;;;5.45;2.25;;;18.90;60.80;;;;;;10353048;28;20696;-38
2022/09/28 10:07:04;;;;;;;3.70;1.75;;;19.30;59.70;;;;;;10362859;28;20097;-37
2022/09/28 10:12:09;;;;;;;2.03;1.23;;;19.20;59.80;;;;;;10359861;28;20103;-37
2022/09/28 10:17:13;;;;;;;3.40;1.30;;;19.20;59.70;;;;;;10352199;28;20068;-37
2022/09/28 10:22:20;;;;;;;2.65;1.20;;;19.30;59.50;;;;;;10360837;28;20096;-37
2022/09/28 10:27:25;;;;;;;1.40;0.80;;;19.30;59.60;;;;;;10353567;28;20042;-38
2022/09/28 10:32:37;;;;;;;3.22;0.82;;;19.40;60.00;;;;;;10356306;28;20046;-39
2022/09/28 10:37:51;;;;;;;2.50;1.10;;;19.40;59.20;;;;;;10364029;28;20486;-39
2022/09/28 10:43:00;;;;;;;0.68;0.57;;;19.10;60.50;;;;;;10371833;28;20046;-41
2022/09/28 10:48:06;;;;;;;5.28;0.52;;;19.10;60.00;;;;;;10348256;28;20498;-38
2022/09/28 10:53:18;;;;;;;3.72;0.45;;;19.00;61.50;;;;;;10364194;28;20038;-38
2022/09/28 10:58:26;;;;;;;1.52;0.88;;;17.10;69.60;;;;;;10364019;28;20045;-39
2022/09/28 11:03:29;;;;;;;2.95;0.50;;;17.20;69.20;;;;;;10348660;28;20054;-38
2022/09/28 11:08:37;;;;;;;1.50;0.80;;;16.20;72.90;;;;;;10367814;28;20563;-39
2022/09/28 11:13:44;;;;;;;4.25;0.93;;;17.00;70.90;;;;;;10356275;28;20121;-38
2022/09/28 11:18:46;;;;;;;5.05;0.70;;;16.60;72.10;;;;;;10365880;28;20054;-39
2022/09/28 11:24:06;;;;;;;5.37;2.43;;;16.20;76.30;;;;;;10355781;28;20157;-38
2022/09/28 11:29:23;;;;;;;1.20;0.57;;;17.70;67.70;;;;;;10361286;28;20055;-37
2022/09/28 11:34:34;;;;;;;0.88;0.50;;;16.50;77.30;;;;;;10350084;28;20054;-38
2022/09/28 11:39:45;;;;;;;6.80;3.13;;;16.00;74.80;;;;;;10364514;28;20042;-36
2022/09/28 11:44:49;;;;;;;4.50;1.95;;;17.40;69.90;;;;;;10357342;28;20042;-39
2022/09/28 11:49:57;;;;;;;8.02;4.38;;;16.70;73.30;;;;;;10362435;28;20442;-37
2022/09/28 11:55:06;;;;;;;7.55;4.05;;;17.30;70.00;;;;;;10357849;28;20567;-39
2022/09/28 12:00:14;;;;;;;6.10;2.67;;;17.00;70.30;;;;;;10340732;28;20093;-40
2022/09/28 12:05:22;;;;;;;0.90;0.43;;;16.60;71.50;;;;;;10343134;28;20406;-38
2022/09/28 12:10:35;;;;;;;4.97;1.13;;;15.00;79.10;;;;;;10350539;28;20081;-39
2022/09/28 12:15:44;;;;;;;1.73;0.70;;;14.90;79.80;;;;;;10350760;28;20081;-39
2022/09/28 12:20:50;;;;;;;6.15;2.10;;;14.50;80.20;;;;;;10355540;28;20129;-40
2022/09/28 12:25:58;;;;;;;5.07;0.73;;;16.80;73.40;;;;;;10367153;28;20070;-37
2022/09/28 12:31:09;;;;;;;3.22;1.95;;;15.70;72.40;;;;;;10356398;28;20603;-35
2022/09/28 12:36:27;;;;;;;7.88;3.38;;;16.80;72.50;;;;;;10356181;28;20159;-37
2022/09/28 12:41:45;;;;;;;2.92;1.67;;;19.10;63.70;;;;;;10364981;28;20042;-39
2022/09/28 12:47:04;;;;;;;5.30;2.40;;;19.80;61.00;;;;;;10360738;28;20547;-38
2022/09/28 12:52:20;;;;;;;5.97;4.18;;;19.10;63.10;;;;;;10360473;28;20072;-39
2022/09/28 12:57:40;;;;;;;9.48;4.18;;;19.50;62.00;;;;;;10369074;28;20045;-38
2022/09/28 13:03:07;;;;;;;3.97;1.27;;;19.70;62.30;;;;;;10363354;28;20042;-38
2022/09/28 13:08:13;;;;;;;5.05;1.42;;;19.10;65.40;;;;;;10361370;28;20088;-41
2022/09/28 13:13:30;;;;;;;6.93;3.53;;;18.80;70.10;;;;;;10363938;28;20140;-40
2022/09/28 13:18:39;;;;;;;6.15;2.80;;;19.40;64.40;;;;;;10359842;28;20086;-38
2022/09/28 13:23:43;;;;;;;4.47;1.20;;;17.00;74.60;;;;;;10374307;28;20438;-41
2022/09/28 13:28:49;;;;;;;2.67;1.60;;;16.90;75.20;;;;;;10374028;28;20053;-39
2022/09/28 13:33:52;;;;;;;9.60;1.65;;;15.20;82.70;;;;;;10369263;28;20046;-38
2022/09/28 13:38:54;;;;;;;2.15;1.20;;;15.70;80.20;;;;;;10368220;28;20056;-40
2022/09/28 13:44:23;;;;;;;5.47;1.58;;;16.70;77.90;;;;;;10355032;28;20080;-39
2022/09/28 13:49:36;;;;;;;5.45;2.17;;;17.40;75.10;;;;;;10358655;28;20103;-36
2022/09/28 13:55:03;;;;;;;6.43;3.25;;;17.20;74.20;;;;;;10356508;28;20069;-38
2022/09/28 14:00:18;;;;;;;7.15;3.83;;;17.70;72.10;;;;;;10362913;28;20476;-38
2022/09/28 14:05:36;;;;;;;8.80;3.83;;;17.50;71.50;;;;;;10359708;28;20138;-38
2022/09/28 14:10:50;;;;;;;2.65;1.50;;;17.40;72.40;;;;;;10350456;28;20051;-37
2022/09/28 14:15:53;;;;;;;8.30;2.42;;;14.90;83.00;;;;;;10347705;28;20513;-38
2022/09/28 14:21:07;;;;;;;5.03;2.67;;;16.00;76.90;;;;;;10355956;28;20145;-39
2022/09/28 14:26:40;;;;;;;5.50;2.95;;;17.10;73.50;;;;;;10346245;28;20129;-39
2022/09/28 14:31:44;;;;;;;11.93;5.57;;;16.90;74.20;;;;;;10343709;28;20073;-40
2022/09/28 14:42:11;;;;;;;6.00;2.50;;;18.00;69.10;;;;;;10362395;28;20054;-38
2022/09/28 14:47:35;;;;;;;5.07;2.55;;;17.10;70.80;;;;;;10361075;28;20442;-38
2022/09/28 14:52:45;;;;;;;7.70;4.15;;;18.10;68.70;;;;;;10369807;28;20096;-38
2022/09/28 14:57:55;;;;;;;6.82;3.03;;;18.90;65.10;;;;;;10357978;28;20073;-40
2022/09/28 15:03:03;;;;;;;9.77;3.90;;;16.70;72.10;;;;;;10348457;28;20046;-40
2022/09/28 15:08:06;;;;;;;5.18;2.35;;;17.70;71.10;;;;;;10334978;28;20101;-38
2022/09/28 15:13:19;;;;;;;6.15;2.33;;;18.50;67.40;;;;;;10357356;28;20050;-40
2022/09/28 15:19:09;;;;;;;4.65;2.20;;;19.40;64.60;;;;;;10363685;28;20069;-40
2022/09/28 15:24:24;;;;;;;3.95;1.23;;;19.10;64.40;;;;;;10361851;28;20050;-39
2022/09/28 15:29:30;;;;;;;4.25;1.13;;;19.70;62.70;;;;;;10373505;28;20050;-38
2022/09/28 15:34:53;;;;;;;2.17;0.80;;;19.70;62.70;;;;;;10350051;28;20112;-38
2022/09/28 15:39:58;;;;;;;4.78;1.15;;;19.90;62.20;;;;;;10358848;28;20046;-38
2022/09/28 15:45:23;;;;;;;4.72;0.90;;;20.20;60.90;;;;;;10348729;28;20082;-41
2022/09/28 15:50:28;;;;;;;3.95;1.02;;;19.30;64.20;;;;;;10360062;28;20084;-38
2022/09/28 15:55:33;;;;;;;1.10;0.85;;;19.30;63.00;;;;;;10371456;28;20047;-38
2022/09/28 16:00:35;;;;;;;3.92;1.05;;;19.00;65.70;;;;;;10367570;28;20085;-41
2022/09/28 16:05:42;;;;;;;3.03;1.65;;;19.70;63.20;;;;;;10360950;28;20037;-39
2022/09/28 16:10:55;;;;;;;5.95;1.83;;;20.20;61.20;;;;;;10355699;28;20050;-39
2022/09/28 16:15:58;;;;;;;2.75;0.82;;;19.90;61.90;;;;;;10349795;28;20205;-40
2022/09/28 16:21:27;;;;;;;2.22;1.30;;;20.10;60.30;;;;;;10353036;28;20174;-40
2022/09/28 16:26:33;;;;;;;7.70;2.10;;;19.80;62.20;;;;;;10360159;28;20051;-41
2022/09/28 16:31:35;;;;;;;1.95;1.10;;;20.40;60.30;;;;;;10359245;28;20152;-40
2022/09/28 16:36:44;;;;;;;;;;;20.80;59.40;;;;;;10370867;28;20060;-40
2022/09/28 16:41:48;;;;;;;1.75;0.80;;;20.90;59.00;;;;;;10366492;28;19933;-38
2022/09/28 16:46:52;;;;;;;2.20;0.60;;;21.00;58.80;;;;;;10364981;28;20078;-39
2022/09/28 16:51:55;;;;;;;1.50;0.60;;;20.90;58.70;;;;;;10365275;28;20080;-39
2022/09/28 16:56:57;;;;;;;2.92;1.55;;;20.40;59.80;;;;;;10364377;28;20125;-40
2022/09/28 17:01:59;;;;;;;4.93;2.15;;;20.90;59.20;;;;;;10357916;28;20325;-38
2022/09/28 17:07:02;;;;;;;1.95;0.82;;;21.10;58.50;;;;;;10345369;28;20073;-39
2022/09/28 17:12:11;;;;;;;2.83;1.05;;;21.60;58.00;;;;;;10347164;28;20054;-32
2022/09/28 17:17:14;;;;;;;1.73;0.60;;;21.30;58.10;;;;;;10352210;28;20058;-39
2022/09/28 17:22:17;;;;;;;;;;;21.20;58.20;;;;;;10356974;28;20044;-38
2022/09/28 17:27:20;;;;;;;4.10;1.85;;;21.20;58.50;;;;;;10347746;28;19922;-39
2022/09/28 17:32:22;;;;;;;12.60;5.38;;;21.10;58.90;;;;;;10355663;28;20561;-40
2022/09/28 17:37:33;;;;;;;13.25;7.22;;;21.00;59.00;;;;;;10358581;28;20550;-38
2022/09/28 17:42:35;;;;;;;16.23;9.35;;;20.90;59.10;;;;;;10362800;28;20041;-37
2022/09/28 17:47:36;;;;;;;15.70;8.52;;;20.80;59.00;;;;;;10358763;28;20140;-39
2022/09/28 17:52:40;;;;;;;14.65;8.15;;;20.90;59.00;;;;;;10356261;28;20065;-42
2022/09/28 17:57:41;;;;;;;18.77;8.07;;;20.90;59.20;;;;;;10371253;28;20072;-39
2022/09/28 18:02:44;;;;;;;20.85;11.60;;;20.80;59.40;;;;;;10359515;28;20089;-36
2022/09/28 18:07:48;;;;;;;20.23;10.68;;;20.80;59.40;;;;;;10356379;28;20050;-37
2022/09/28 18:12:50;;;;;;;16.88;10.05;;;20.80;59.60;;;;;;10361298;28;20061;-37
2022/09/28 18:17:52;;;;;;;;;;;20.50;59.30;;;;;;10369182;28;20127;-38
2022/09/28 18:22:56;;;;;;;19.77;10.75;;;20.70;59.60;;;;;;10365118;28;19921;-40
2022/09/28 18:27:58;;;;;;;21.38;9.50;;;20.60;59.60;;;;;;10348075;28;20466;-39
2022/09/28 18:33:00;;;;;;;22.48;12.25;;;20.70;59.70;;;;;;10358133;28;20049;-38
2022/09/28 18:38:05;;;;;;;14.73;8.93;;;20.70;59.60;;;;;;10356384;28;20046;-39
2022/09/28 18:43:07;;;;;;;21.65;11.02;;;20.90;59.90;;;;;;10354230;28;20139;-39
2022/09/28 18:48:09;;;;;;;15.30;6.78;;;20.60;59.80;;;;;;10363458;28;20107;-38
2022/09/28 18:53:12;;;;;;;19.33;10.13;;;20.60;60.00;;;;;;10355638;28;20137;-37
2022/09/28 18:58:14;;;;;;;32.58;12.98;;;20.50;59.80;;;;;;10343031;28;20128;-37
2022/09/28 19:03:16;;;;;;;15.95;9.15;;;20.60;59.60;;;;;;10349910;28;20539;-36
2022/09/28 19:08:19;;;;;;;20.17;10.48;;;20.60;59.90;;;;;;10350026;28;20615;-40
2022/09/28 19:13:21;;;;;;;22.67;9.95;;;20.60;59.90;;;;;;10343188;28;20065;-40
2022/09/28 19:18:22;;;;;;;19.60;10.27;;;20.50;60.00;;;;;;10351587;28;20132;-38
2022/09/28 19:23:26;;;;;;;19.40;9.52;;;20.50;60.10;;;;;;10361039;28;20089;-38
2022/09/28 19:28:27;;;;;;;18.45;11.30;;;20.40;60.00;;;;;;10357868;28;20706;-38
2022/09/28 19:33:30;;;;;;;23.55;12.40;;;20.40;60.00;;;;;;10352772;28;20136;-38
2022/09/28 19:38:34;;;;;;;;;;;20.40;60.00;;;;;;10366579;28;20136;-37
2022/09/28 19:43:37;;;;;;;19.88;10.75;;;20.40;60.00;;;;;;10352399;28;19930;-39
2022/09/28 19:48:41;;;;;;;18.60;9.93;;;20.30;60.00;;;;;;10349456;28;20056;-40
2022/09/28 19:53:44;;;;;;;21.88;10.32;;;20.30;59.90;;;;;;10366676;28;20128;-38
2022/09/28 19:58:46;;;;;;;22.00;10.60;;;20.30;60.00;;;;;;10357574;28;20109;-39
2022/09/28 20:03:48;;;;;;;16.27;8.65;;;20.40;60.10;;;;;;10360586;28;20077;-39
2022/09/28 20:08:51;;;;;;;12.45;5.68;;;20.60;59.80;;;;;;10357004;28;20064;-38
2022/09/28 20:13:53;;;;;;;6.15;3.13;;;20.70;59.80;;;;;;10357321;28;20160;-39
2022/09/28 20:18:57;;;;;;;;;;;20.70;59.90;;;;;;10353923;28;20459;-38
2022/09/28 20:24:00;;;;;;;11.32;2.65;;;20.80;59.80;;;;;;10353610;28;19992;-38
2022/09/28 20:29:02;;;;;;;4.43;1.80;;;20.70;60.00;;;;;;10352936;28;20108;-39
2022/09/28 20:34:05;;;;;;;4.90;2.28;;;20.70;60.00;;;;;;10360545;28;20154;-41
2022/09/28 20:39:10;;;;;;;3.05;1.48;;;20.70;60.00;;;;;;10356089;28;20088;-38
2022/09/28 20:44:12;;;;;;;3.72;1.80;;;21.00;60.20;;;;;;10348386;28;20054;-40
2022/09/28 20:49:14;;;;;;;;;;;20.70;60.10;;;;;;10346946;28;20042;-34
2022/09/28 20:54:17;;;;;;;7.07;1.83;;;20.50;60.20;;;;;;10370360;28;19925;-37
2022/09/28 20:59:21;;;;;;;4.90;1.48;;;20.70;60.20;;;;;;10344277;28;20065;-39
2022/09/28 21:04:23;;;;;;;6.20;1.50;;;20.60;60.40;;;;;;10348905;28;20092;-38
2022/09/28 21:09:28;;;;;;;8.02;1.27;;;20.60;60.50;;;;;;10366358;28;20050;-38
2022/09/28 21:14:30;;;;;;;5.35;1.63;;;20.60;60.60;;;;;;10363454;28;20595;-37
2022/09/28 21:19:31;;;;;;;4.47;1.38;;;20.50;60.50;;;;;;10356919;28;20163;-37
2022/09/28 21:24:35;;;;;;;4.45;1.58;;;20.50;60.60;;;;;;10383061;28;20881;-38
2022/09/28 21:29:37;;;;;;;3.55;1.38;;;20.50;60.60;;;;;;10360130;28;20053;-38
2022/09/28 21:34:39;;;;;;;6.05;1.20;;;20.40;60.60;;;;;;10368604;28;20045;-38
2022/09/28 21:39:42;;;;;;;4.57;1.17;;;20.40;60.70;;;;;;10351332;28;20046;-37
2022/09/28 21:44:44;;;;;;;4.15;1.60;;;20.40;60.80;;;;;;10340335;28;20074;-38
2022/09/28 21:49:46;;;;;;;2.00;1.30;;;20.40;60.80;;;;;;10354129;28;20184;-39
2022/09/28 21:54:49;;;;;;;2.78;1.23;;;20.30;60.80;;;;;;10353698;28;20134;-38
2022/09/28 21:59:51;;;;;;;4.57;1.25;;;20.30;60.80;;;;;;10357794;28;20045;-37
2022/09/28 22:04:53;;;;;;;2.40;1.00;;;20.30;60.90;;;;;;10342412;28;20069;-38
2022/09/28 22:09:56;;;;;;;3.97;1.25;;;20.30;60.90;;;;;;10358541;28;20092;-38
2022/09/28 22:14:58;;;;;;;0.93;0.80;;;20.20;61.00;;;;;;10343222;28;20046;-39
2022/09/28 22:20:00;;;;;;;3.92;1.17;;;20.20;61.10;;;;;;10359156;28;20069;-37
2022/09/28 22:25:04;;;;;;;1.88;1.00;;;20.20;61.20;;;;;;10353259;28;20128;-39
2022/09/28 22:30:07;;;;;;;3.58;1.20;;;20.20;61.10;;;;;;10348443;28;20042;-39
2022/09/28 22:35:09;;;;;;;1.45;0.90;;;20.10;61.10;;;;;;10354385;28;20073;-38
2022/09/28 22:40:13;;;;;;;1.92;1.00;;;20.00;61.30;;;;;;10362721;28;20133;-37
2022/09/28 22:45:15;;;;;;;2.63;1.00;;;20.10;61.10;;;;;;10349871;28;20145;-37
2022/09/28 22:50:17;;;;;;;1.48;0.80;;;20.00;61.30;;;;;;10330308;28;20492;-38
2022/09/28 22:55:20;;;;;;;5.18;1.23;;;19.90;61.60;;;;;;10351159;28;20066;-38
2022/09/28 23:00:22;;;;;;;1.75;0.98;;;19.80;61.50;;;;;;10359111;28;20121;-40
2022/09/28 23:05:23;;;;;;;2.28;0.85;;;19.90;61.20;;;;;;10348000;28;20081;-38
2022/09/28 23:10:27;;;;;;;2.13;1.15;;;20.00;61.10;;;;;;10349492;28;20054;-39
2022/09/28 23:15:29;;;;;;;1.17;0.80;;;19.90;61.00;;;;;;10333849;28;20069;-39
2022/09/28 23:20:30;;;;;;;1.27;0.90;;;19.80;61.00;;;;;;10351767;28;20086;-38
2022/09/28 23:25:33;;;;;;;4.22;1.20;;;19.90;61.20;;;;;;10340364;28;20395;-38
2022/09/28 23:30:35;;;;;;;2.05;1.35;;;19.90;61.20;;;;;;10343740;28;20550;-39
2022/09/28 23:35:37;;;;;;;1.23;0.80;;;19.90;61.40;;;;;;10339155;28;20518;-38
2022/09/28 23:40:41;;;;;;;1.23;0.73;;;19.90;61.40;;;;;;10348633;28;20039;-39
2022/09/28 23:45:43;;;;;;;1.73;0.77;;;19.90;61.40;;;;;;10357462;28;20538;-39
2022/09/28 23:50:45;;;;;;;1.17;0.75;;;19.80;61.50;;;;;;10353645;28;20061;-39
2022/09/28 23:55:48;;;;;;;0.70;0.65;;;19.80;61.60;;;;;;10354007;28;20479;-39
